Time;durP1;ratioP1;P1;durP2;ratioP2;P2;SDS_P1;SDS_P2;PMS_P1;PMS_P2;Temp;Humidity;BMP_temperature;BMP_pressure;BME280_temperature;BME280_humidity;BME280_pressure;Samples;Min_cycle;Max_cycle;Signal;HPM_P1;HPM_P2
2022/01/18 00:00:07;;;;;;;17.93;2.67;;;5.40;99.90;;;;;;5041772;28;20753;-51
2022/01/18 00:02:35;;;;;;;26.50;3.20;;;5.40;99.90;;;;;;5053178;28;20340;-51
2022/01/18 00:05:01;;;;;;;23.13;3.37;;;5.40;99.90;;;;;;5059089;28;20602;-53
2022/01/18 00:07:29;;;;;;;12.17;2.60;;;5.40;99.90;;;;;;5041629;28;20256;-50
2022/01/18 00:09:56;;;;;;;14.00;2.93;;;5.40;99.90;;;;;;5065544;28;20203;-51
2022/01/18 00:12:55;;;;;;;9.73;2.40;;;5.40;99.90;;;;;;5061642;28;20866;-50
2022/01/18 00:18:09;;;;;;;16.30;3.30;;;5.40;99.90;;;;;;5063945;28;20206;-51
2022/01/18 00:20:48;;;;;;;16.07;3.07;;;5.40;99.90;;;;;;5044274;28;20195;-50
2022/01/18 00:23:17;;;;;;;20.53;3.40;;;5.40;99.90;;;;;;5043760;28;20668;-54
2022/01/18 00:25:48;;;;;;;17.63;3.43;;;5.40;99.90;;;;;;5046314;28;20826;-50
2022/01/18 00:28:16;;;;;;;13.47;2.77;;;5.40;99.90;;;;;;5043512;28;20196;-51
2022/01/18 00:33:37;;;;;;;21.17;3.27;;;5.50;99.90;;;;;;5040380;28;20195;-47
2022/01/18 00:36:06;;;;;;;26.13;2.93;;;5.50;99.90;;;;;;5051295;28;20227;-53
2022/01/18 00:38:45;;;;;;;18.37;2.90;;;5.50;99.90;;;;;;5043183;28;20277;-52
2022/01/18 00:41:11;;;;;;;13.50;2.93;;;5.50;99.90;;;;;;5056987;28;20222;-52
2022/01/18 00:43:39;;;;;;;16.47;4.00;;;5.50;99.90;;;;;;5046825;28;20274;-50
2022/01/18 00:46:06;;;;;;;16.70;2.00;;;5.60;99.90;;;;;;5043428;28;20237;-49
2022/01/18 00:48:35;;;;;;;11.50;2.57;;;5.60;99.90;;;;;;5044902;28;20195;-50
2022/01/18 00:51:04;;;;;;;11.97;2.80;;;5.60;99.90;;;;;;5045584;28;20260;-51
2022/01/18 00:53:32;;;;;;;14.73;2.87;;;5.60;99.90;;;;;;5042474;28;20890;-49
2022/01/18 00:56:11;;;;;;;12.13;2.20;;;5.60;99.90;;;;;;5045658;28;20904;-50
2022/01/18 00:58:39;;;;;;;11.07;2.40;;;5.60;99.90;;;;;;5044213;28;20195;-54
2022/01/18 01:01:06;;;;;;;10.33;2.30;;;5.70;99.90;;;;;;5034394;28;20226;-53
2022/01/18 01:03:35;;;;;;;9.63;2.13;;;5.70;99.90;;;;;;5049945;28;20206;-53
2022/01/18 01:06:04;;;;;;;12.37;1.77;;;5.70;99.90;;;;;;5046646;28;20696;-51
2022/01/18 01:08:31;;;;;;;12.20;2.13;;;5.70;99.90;;;;;;5042137;28;20192;-52
2022/01/18 01:10:59;;;;;;;7.07;2.33;;;5.80;99.90;;;;;;5045506;28;20191;-52
2022/01/18 01:13:27;;;;;;;15.80;1.83;;;5.80;99.90;;;;;;5041307;28;20199;-54
2022/01/18 01:16:06;;;;;;;8.77;1.67;;;5.80;99.90;;;;;;5037288;28;20226;-50
2022/01/18 01:18:43;;;;;;;9.20;1.67;;;5.80;99.90;;;;;;5050693;28;20280;-48
2022/01/18 01:32:41;;;;;;;11.97;2.57;;;5.90;99.90;;;;;;5046332;28;20294;-52
2022/01/18 01:35:12;;;;;;;11.40;1.73;;;5.90;99.90;;;;;;5053520;28;20301;-53
2022/01/18 01:43:20;;;;;;;10.87;1.90;;;5.90;99.90;;;;;;5043222;28;20695;-55
2022/01/18 01:45:49;;;;;;;9.17;1.27;;;5.90;99.90;;;;;;5057518;28;20218;-50
2022/01/18 01:48:17;;;;;;;8.53;1.43;;;5.90;99.90;;;;;;5044380;28;20203;-53
2022/01/18 01:50:48;;;;;;;6.93;1.40;;;5.90;99.90;;;;;;5047979;28;20199;-53
2022/01/18 01:53:18;;;;;;;8.57;1.47;;;5.90;99.90;;;;;;5041575;28;20675;-51
2022/01/18 01:55:46;;;;;;;7.57;1.57;;;5.90;99.90;;;;;;5044213;28;20227;-53
2022/01/18 01:58:15;;;;;;;8.83;1.87;;;5.90;99.90;;;;;;5042210;28;20689;-52
2022/01/18 02:00:44;;;;;;;6.40;1.47;;;5.80;99.90;;;;;;5043562;28;20203;-51
2022/01/18 02:03:11;;;;;;;8.30;1.70;;;5.90;99.90;;;;;;5035154;28;20254;-51
2022/01/18 02:05:38;;;;;;;10.40;1.60;;;5.90;99.90;;;;;;5052126;28;20423;-49
2022/01/18 02:08:07;;;;;;;8.77;2.33;;;5.90;99.90;;;;;;5062545;28;20690;-53
2022/01/18 02:10:34;;;;;;;8.50;1.57;;;5.90;99.90;;;;;;5060581;28;20187;-50
2022/01/18 02:13:02;;;;;;;6.73;1.30;;;5.90;99.90;;;;;;5063486;28;20194;-52
2022/01/18 02:15:30;;;;;;;10.50;1.63;;;5.90;99.90;;;;;;5059608;28;20241;-53
2022/01/18 02:23:29;;;;;;;9.43;1.57;;;5.90;99.90;;;;;;5035582;28;20491;-53
2022/01/18 02:25:56;;;;;;;6.20;1.43;;;5.90;99.90;;;;;;5062862;28;20233;-52
2022/01/18 02:28:25;;;;;;;6.23;1.33;;;5.90;99.90;;;;;;5058530;28;20857;-48
2022/01/18 02:30:52;;;;;;;12.53;1.83;;;5.90;99.90;;;;;;5062750;28;20209;-52
2022/01/18 02:33:19;;;;;;;10.10;1.53;;;5.90;99.90;;;;;;5050726;28;20765;-49
2022/01/18 02:35:48;;;;;;;8.70;2.63;;;5.90;99.90;;;;;;5040234;28;20699;-52
2022/01/18 02:38:16;;;;;;;10.57;1.23;;;5.90;99.90;;;;;;5046407;28;20682;-49
2022/01/18 02:40:43;;;;;;;7.63;1.47;;;5.90;99.90;;;;;;5044120;28;20203;-55
2022/01/18 02:45:58;;;;;;;5.73;1.40;;;5.90;99.90;;;;;;5043345;28;20245;-50
2022/01/18 02:48:26;;;;;;;11.30;1.77;;;5.90;99.90;;;;;;5044446;28;20204;-50
2022/01/18 02:50:55;;;;;;;8.33;1.30;;;6.00;99.90;;;;;;5037498;28;20202;-50
2022/01/18 02:53:22;;;;;;;7.80;1.40;;;5.90;99.90;;;;;;5048279;28;20860;-49
2022/01/18 02:55:51;;;;;;;4.90;1.03;;;6.00;99.90;;;;;;5043313;28;20277;-51
2022/01/18 02:58:25;;;;;;;7.97;0.97;;;6.00;99.90;;;;;;5039595;28;20655;-54
2022/01/18 03:03:38;;;;;;;5.00;1.20;;;6.00;99.90;;;;;;5045541;28;20202;-52
2022/01/18 03:06:08;;;;;;;6.03;1.07;;;6.00;99.90;;;;;;5040553;28;20226;-52
2022/01/18 03:08:35;;;;;;;7.63;1.40;;;6.00;99.90;;;;;;5043781;28;20958;-50
2022/01/18 03:11:03;;;;;;;4.90;1.43;;;6.10;99.90;;;;;;5042893;28;20203;-52
2022/01/18 03:13:30;;;;;;;3.33;1.07;;;6.10;99.90;;;;;;5040624;28;20261;-50
2022/01/18 03:15:57;;;;;;;7.13;0.93;;;6.10;99.90;;;;;;5043208;28;20616;-47
2022/01/18 03:18:23;;;;;;;5.53;1.20;;;6.10;99.90;;;;;;5039228;28;20199;-52
2022/01/18 03:20:50;;;;;;;4.43;1.00;;;6.20;99.90;;;;;;5043427;28;20210;-51
2022/01/18 03:23:21;;;;;;;7.07;1.40;;;6.20;99.90;;;;;;5038556;28;20214;-54
2022/01/18 03:25:57;;;;;;;4.60;1.10;;;6.30;99.90;;;;;;5046479;28;20329;-52
2022/01/18 03:28:25;;;;;;;5.63;1.30;;;6.20;99.90;;;;;;5039427;28;20202;-52
2022/01/18 03:30:54;;;;;;;4.57;0.90;;;6.30;99.90;;;;;;5043242;28;20221;-51
2022/01/18 03:33:23;;;;;;;5.37;1.17;;;6.30;99.90;;;;;;5045609;28;20199;-53
2022/01/18 03:35:52;;;;;;;7.40;1.00;;;6.30;99.90;;;;;;5045018;28;20314;-52
2022/01/18 03:38:22;;;;;;;4.13;0.83;;;6.30;99.90;;;;;;5035855;28;20215;-54
2022/01/18 03:40:49;;;;;;;5.20;0.90;;;6.30;99.90;;;;;;5044698;28;20572;-50
2022/01/18 03:43:17;;;;;;;6.83;1.00;;;6.30;99.90;;;;;;5043638;28;20222;-55
2022/01/18 03:45:47;;;;;;;2.33;0.80;;;6.30;99.90;;;;;;5047154;28;20219;-48
2022/01/18 03:48:26;;;;;;;9.37;1.80;;;6.30;99.90;;;;;;5044171;28;20195;-55
2022/01/18 03:50:54;;;;;;;4.30;1.03;;;6.30;99.90;;;;;;5047117;28;20623;-47
2022/01/18 03:53:23;;;;;;;6.03;1.00;;;6.30;99.90;;;;;;5031633;28;20815;-52
2022/01/18 03:55:50;;;;;;;4.63;0.83;;;6.30;99.90;;;;;;5056451;28;20226;-53
2022/01/18 03:58:17;;;;;;;4.80;0.90;;;6.30;99.90;;;;;;5043372;28;20203;-52
2022/01/18 04:00:44;;;;;;;6.60;0.97;;;6.30;99.90;;;;;;5046802;28;20219;-52
2022/01/18 04:03:11;;;;;;;3.60;0.60;;;6.30;99.90;;;;;;5056380;28;20210;-48
2022/01/18 04:05:38;;;;;;;3.10;0.80;;;6.30;99.90;;;;;;5051097;28;20215;-49
2022/01/18 04:08:05;;;;;;;2.60;0.90;;;6.30;99.90;;;;;;5037749;28;20210;-53
2022/01/18 04:10:34;;;;;;;6.10;0.70;;;6.30;99.90;;;;;;5050288;28;20207;-49
2022/01/18 04:13:01;;;;;;;8.23;1.20;;;6.30;99.90;;;;;;5046612;28;20668;-54
2022/01/18 04:15:28;;;;;;;5.17;1.10;;;6.30;99.90;;;;;;5043277;28;20966;-48
2022/01/18 04:18:14;;;;;;;4.13;0.80;;;6.30;99.90;;;;;;5046401;28;20203;-50
2022/01/18 04:28:59;;;;;;;2.97;0.77;;;6.30;99.90;;;;;;5046442;28;20351;-53
2022/01/18 04:31:27;;;;;;;4.87;0.90;;;6.30;99.90;;;;;;5042784;28;20529;-53
2022/01/18 04:33:55;;;;;;;6.20;1.07;;;6.30;99.90;;;;;;5054781;28;20200;-55
2022/01/18 04:36:21;;;;;;;2.77;0.93;;;6.30;99.90;;;;;;5050230;28;20199;-51
2022/01/18 04:38:48;;;;;;;3.70;0.80;;;6.30;99.90;;;;;;5035648;28;20310;-47
2022/01/18 04:41:24;;;;;;;2.80;1.20;;;6.30;99.90;;;;;;5053616;28;20207;-50
2022/01/18 04:44:06;;;;;;;3.70;1.00;;;6.30;99.90;;;;;;5046027;28;20219;-54
2022/01/18 04:49:17;;;;;;;3.03;0.97;;;6.30;99.90;;;;;;5056167;28;20194;-51
2022/01/18 04:51:46;;;;;;;5.77;1.17;;;6.40;99.90;;;;;;5061111;28;20201;-48
2022/01/18 04:54:14;;;;;;;6.10;1.00;;;6.30;99.90;;;;;;5048127;28;20634;-50
2022/01/18 04:59:27;;;;;;;5.70;1.03;;;6.40;99.90;;;;;;5043816;28;20222;-52
2022/01/18 05:01:55;;;;;;;6.23;1.03;;;6.40;99.90;;;;;;5045519;28;20210;-51
2022/01/18 05:04:22;;;;;;;4.13;0.80;;;6.40;99.90;;;;;;5049886;28;20242;-50
2022/01/18 05:06:51;;;;;;;5.33;1.10;;;6.30;99.90;;;;;;5045767;28;20203;-52
2022/01/18 05:09:18;;;;;;;7.83;0.97;;;6.30;99.90;;;;;;5041663;28;20203;-53
2022/01/18 05:11:54;;;;;;;8.20;1.00;;;6.30;99.90;;;;;;5041452;28;20212;-49
2022/01/18 05:14:28;;;;;;;7.67;1.03;;;6.30;99.90;;;;;;5044573;28;20215;-52
2022/01/18 05:17:01;;;;;;;2.53;1.10;;;6.30;99.90;;;;;;5045130;28;20249;-52
2022/01/18 05:19:40;;;;;;;5.23;0.83;;;6.30;99.90;;;;;;5055064;28;20199;-53
2022/01/18 05:24:55;;;;;;;3.70;0.93;;;6.30;99.90;;;;;;5064173;28;20297;-54
2022/01/18 05:27:23;;;;;;;4.30;1.00;;;6.20;99.90;;;;;;5033255;28;20329;-51
2022/01/18 05:29:51;;;;;;;7.20;1.33;;;6.20;99.90;;;;;;5057940;28;20195;-48
2022/01/18 05:32:17;;;;;;;11.43;1.53;;;6.20;99.90;;;;;;5045931;28;20191;-50
2022/01/18 05:34:48;;;;;;;6.60;1.20;;;6.20;99.90;;;;;;5057980;28;20242;-53
2022/01/18 05:37:15;;;;;;;7.90;1.30;;;6.20;99.90;;;;;;5042581;28;20208;-52
2022/01/18 05:39:42;;;;;;;8.53;1.20;;;6.20;99.90;;;;;;5044722;28;20212;-52
2022/01/18 05:42:10;;;;;;;6.57;1.17;;;6.10;99.90;;;;;;5037288;28;20206;-54
2022/01/18 05:44:38;;;;;;;7.90;1.20;;;6.10;99.90;;;;;;5052034;28;20207;-53
2022/01/18 05:47:05;;;;;;;3.57;1.27;;;6.10;99.90;;;;;;5038821;28;20195;-54
2022/01/18 05:49:32;;;;;;;4.57;1.13;;;6.10;99.90;;;;;;5060166;28;20311;-53
2022/01/18 05:51:58;;;;;;;9.97;1.60;;;6.10;99.90;;;;;;5051886;28;20188;-52
2022/01/18 05:54:25;;;;;;;8.83;1.60;;;6.00;99.90;;;;;;5043000;28;20214;-50
2022/01/18 05:56:51;;;;;;;5.37;1.37;;;6.00;99.90;;;;;;5052227;28;20216;-48
2022/01/18 05:59:23;;;;;;;4.43;1.37;;;6.00;99.90;;;;;;5038187;28;20196;-45
2022/01/18 06:02:01;;;;;;;7.10;1.37;;;6.00;99.90;;;;;;5048051;28;20199;-47
2022/01/18 06:07:13;;;;;;;8.30;1.40;;;6.00;99.90;;;;;;5046682;28;22679;-45
2022/01/18 06:09:40;;;;;;;5.93;1.20;;;6.00;99.90;;;;;;5047581;28;20208;-48
2022/01/18 06:12:08;;;;;;;4.93;1.60;;;6.00;99.90;;;;;;5053241;28;20205;-48
2022/01/18 06:14:35;;;;;;;8.17;1.90;;;6.00;99.90;;;;;;5040165;28;20238;-48
2022/01/18 06:17:03;;;;;;;5.87;1.67;;;6.00;99.90;;;;;;5045104;28;20203;-45
2022/01/18 06:19:30;;;;;;;9.17;1.80;;;6.00;99.90;;;;;;5055954;28;20207;-46
2022/01/18 06:21:56;;;;;;;7.60;2.60;;;6.00;99.90;;;;;;5042079;28;20435;-42
2022/01/18 06:24:23;;;;;;;8.80;2.10;;;6.00;99.90;;;;;;5042324;28;20230;-46
2022/01/18 06:26:50;;;;;;;8.70;2.07;;;6.00;99.90;;;;;;5044250;28;20201;-43
2022/01/18 06:29:17;;;;;;;7.70;2.60;;;6.00;99.90;;;;;;5046675;28;20667;-46
2022/01/18 06:31:44;;;;;;;14.10;2.80;;;6.10;99.90;;;;;;5048194;28;20879;-45
2022/01/18 06:34:14;;;;;;;6.60;2.60;;;6.00;99.90;;;;;;5051573;28;20194;-46
2022/01/18 06:36:42;;;;;;;10.77;2.57;;;6.10;99.90;;;;;;5046990;28;20542;-43
2022/01/18 06:39:09;;;;;;;9.50;3.00;;;6.10;99.90;;;;;;5050566;28;20205;-45
2022/01/18 06:41:36;;;;;;;16.50;3.63;;;6.10;99.90;;;;;;5036554;28;20199;-45
2022/01/18 06:44:03;;;;;;;14.90;4.17;;;6.10;99.90;;;;;;5049368;28;20226;-41
2022/01/18 06:46:30;;;;;;;18.03;3.20;;;6.10;99.90;;;;;;5035089;28;20207;-45
2022/01/18 06:48:57;;;;;;;14.30;4.43;;;6.10;99.90;;;;;;5042570;28;20207;-45
2022/01/18 06:51:25;;;;;;;26.77;4.63;;;6.10;99.90;;;;;;5048866;28;20204;-46
2022/01/18 06:53:52;;;;;;;14.33;3.83;;;6.20;99.90;;;;;;5047613;28;20207;-51
2022/01/18 06:56:20;;;;;;;16.90;4.50;;;6.20;99.90;;;;;;5040671;28;20219;-51
2022/01/18 06:58:47;;;;;;;14.43;4.40;;;6.20;99.90;;;;;;5054137;28;20301;-47
2022/01/18 07:01:15;;;;;;;16.83;4.80;;;6.20;99.90;;;;;;5035513;28;20218;-48
2022/01/18 07:03:42;;;;;;;19.73;4.57;;;6.20;99.90;;;;;;5044518;28;20218;-47
2022/01/18 07:06:09;;;;;;;16.13;4.93;;;6.20;99.90;;;;;;5053803;28;20703;-45
2022/01/18 07:08:38;;;;;;;23.50;4.77;;;6.20;99.90;;;;;;5054819;28;20195;-45
2022/01/18 07:11:06;;;;;;;19.53;4.60;;;6.20;99.90;;;;;;5044396;28;20309;-49
2022/01/18 07:13:34;;;;;;;15.50;5.10;;;6.20;99.90;;;;;;5040344;28;20869;-50
2022/01/18 07:16:00;;;;;;;13.93;4.43;;;6.20;99.90;;;;;;5034116;28;20582;-45
2022/01/18 07:18:27;;;;;;;15.37;5.43;;;6.20;99.90;;;;;;5049274;28;20187;-47
2022/01/18 07:20:54;;;;;;;19.17;5.10;;;6.20;99.90;;;;;;5032340;28;20211;-48
2022/01/18 07:23:22;;;;;;;21.47;4.37;;;6.20;99.90;;;;;;5041760;28;20218;-48
2022/01/18 07:25:52;;;;;;;17.57;5.73;;;6.20;99.90;;;;;;5043079;28;20650;-48
2022/01/18 07:28:20;;;;;;;22.73;4.67;;;6.20;99.90;;;;;;5037571;28;20218;-48
2022/01/18 07:30:48;;;;;;;24.23;5.50;;;6.20;99.90;;;;;;5039089;28;20234;-49
2022/01/18 07:33:17;;;;;;;15.87;4.30;;;6.20;99.90;;;;;;5041469;28;20200;-46
2022/01/18 07:35:45;;;;;;;18.30;4.23;;;6.20;99.90;;;;;;5057763;28;20884;-48
2022/01/18 07:38:15;;;;;;;17.47;4.90;;;6.20;99.90;;;;;;5053896;28;20205;-48
2022/01/18 07:40:44;;;;;;;21.13;5.00;;;6.20;99.90;;;;;;5041520;28;20211;-44
2022/01/18 07:43:16;;;;;;;19.77;4.53;;;6.30;99.90;;;;;;5039571;28;20227;-45
2022/01/18 07:45:43;;;;;;;15.13;4.17;;;6.30;99.90;;;;;;5050537;28;20317;-48
2022/01/18 07:48:10;;;;;;;14.33;4.83;;;6.30;99.90;;;;;;5035415;28;20199;-51
2022/01/18 07:50:37;;;;;;;15.23;3.73;;;6.30;99.90;;;;;;5054107;28;20597;-51
2022/01/18 07:53:03;;;;;;;18.83;4.97;;;6.20;99.90;;;;;;5050866;28;20199;-44
2022/01/18 07:55:30;;;;;;;15.43;4.47;;;6.30;99.90;;;;;;5048847;28;20223;-45
2022/01/18 07:57:59;;;;;;;20.80;4.33;;;6.30;99.90;;;;;;5039228;28;20206;-46
2022/01/18 08:00:28;;;;;;;23.90;4.13;;;6.30;99.90;;;;;;5044639;28;20269;-46
2022/01/18 08:02:55;;;;;;;13.90;4.00;;;6.30;99.90;;;;;;5035635;28;20298;-45
2022/01/18 08:05:22;;;;;;;20.23;4.30;;;6.30;99.90;;;;;;5047743;28;20230;-50
2022/01/18 08:07:49;;;;;;;15.57;4.50;;;6.30;99.90;;;;;;5041330;28;20684;-48
2022/01/18 08:10:17;;;;;;;21.53;4.00;;;6.30;99.90;;;;;;5040429;28;20226;-45
2022/01/18 08:12:45;;;;;;;15.90;4.03;;;6.30;99.90;;;;;;5038519;28;20200;-47
2022/01/18 08:15:18;;;;;;;23.00;3.90;;;6.30;99.90;;;;;;5040226;28;20297;-48
2022/01/18 08:17:49;;;;;;;20.77;4.83;;;6.40;99.90;;;;;;5037578;28;20206;-49
2022/01/18 08:20:18;;;;;;;22.30;4.30;;;6.40;99.90;;;;;;5051624;28;20202;-45
2022/01/18 08:22:45;;;;;;;17.13;4.00;;;6.40;99.90;;;;;;5046186;28;20201;-47
2022/01/18 08:25:14;;;;;;;30.00;4.70;;;6.40;99.90;;;;;;5048623;28;20911;-50
2022/01/18 08:27:41;;;;;;;21.80;4.30;;;6.40;99.90;;;;;;5050923;28;20203;-46
2022/01/18 08:30:11;;;;;;;21.03;4.90;;;6.40;99.90;;;;;;5040114;28;20257;-51
2022/01/18 08:32:38;;;;;;;26.07;4.83;;;6.40;99.90;;;;;;5039828;28;20206;-50
2022/01/18 08:35:08;;;;;;;25.97;5.17;;;6.40;99.90;;;;;;5047831;28;20206;-49
2022/01/18 08:37:35;;;;;;;21.07;4.33;;;6.40;99.90;;;;;;5050619;28;20286;-49
2022/01/18 08:40:02;;;;;;;20.43;4.43;;;6.50;99.90;;;;;;5046293;28;20238;-51
2022/01/18 08:42:28;;;;;;;24.90;5.33;;;6.50;99.90;;;;;;5050332;28;20685;-46
2022/01/18 08:44:55;;;;;;;30.93;4.87;;;6.50;99.90;;;;;;5048569;28;20222;-45
2022/01/18 08:47:24;;;;;;;24.20;4.77;;;6.50;99.90;;;;;;5039672;28;20343;-48
2022/01/18 08:49:51;;;;;;;30.70;4.90;;;6.50;99.90;;;;;;5055435;28;20269;-48
2022/01/18 08:52:20;;;;;;;23.43;4.70;;;6.50;99.90;;;;;;5052321;28;20200;-44
2022/01/18 08:54:46;;;;;;;23.00;5.43;;;6.60;99.90;;;;;;5045297;28;20711;-49
2022/01/18 08:57:15;;;;;;;29.70;4.63;;;6.60;99.90;;;;;;5052359;28;20198;-45
2022/01/18 08:59:43;;;;;;;31.43;5.10;;;6.60;99.90;;;;;;5043992;28;20199;-51
2022/01/18 09:02:11;;;;;;;25.57;5.83;;;6.60;99.90;;;;;;5049336;28;20306;-45
2022/01/18 09:04:38;;;;;;;20.47;5.17;;;6.70;99.90;;;;;;5039869;28;20290;-47
2022/01/18 09:07:08;;;;;;;25.20;5.47;;;6.70;99.90;;;;;;5041047;28;20203;-47
2022/01/18 09:09:38;;;;;;;22.73;6.03;;;6.70;99.90;;;;;;5044325;28;20199;-49
2022/01/18 09:12:06;;;;;;;26.80;5.90;;;6.70;99.90;;;;;;5050006;28;20249;-45
2022/01/18 09:14:33;;;;;;;24.90;5.83;;;6.70;99.90;;;;;;5049670;28;20223;-52
2022/01/18 09:17:01;;;;;;;18.20;5.13;;;6.70;99.90;;;;;;5039487;28;20285;-47
2022/01/18 09:19:28;;;;;;;19.23;5.13;;;6.70;99.90;;;;;;5036981;28;20694;-45
2022/01/18 09:21:54;;;;;;;27.13;5.20;;;6.70;99.90;;;;;;5051670;28;20191;-49
2022/01/18 09:24:21;;;;;;;15.53;4.53;;;6.80;99.90;;;;;;5059494;28;20306;-45
2022/01/18 09:26:49;;;;;;;19.73;5.33;;;6.80;99.90;;;;;;5049127;28;20944;-47
2022/01/18 09:29:16;;;;;;;23.80;5.70;;;6.80;99.90;;;;;;5045321;28;20211;-47
2022/01/18 09:31:43;;;;;;;16.90;5.20;;;6.80;99.90;;;;;;5037583;28;20577;-50
2022/01/18 09:34:10;;;;;;;17.40;4.97;;;6.80;99.90;;;;;;5054960;28;20199;-46
2022/01/18 09:36:37;;;;;;;29.10;5.20;;;6.80;99.90;;;;;;5031489;28;20225;-47
2022/01/18 09:39:04;;;;;;;21.07;5.23;;;6.90;99.90;;;;;;5053391;28;20267;-45
2022/01/18 09:41:38;;;;;;;21.50;4.60;;;6.90;99.90;;;;;;5053396;28;20203;-46
2022/01/18 09:44:07;;;;;;;18.17;4.60;;;6.90;99.90;;;;;;5057514;28;20309;-48
2022/01/18 09:46:34;;;;;;;24.30;4.90;;;6.90;99.90;;;;;;5037970;28;20227;-45
2022/01/18 09:49:01;;;;;;;17.53;3.67;;;6.90;99.90;;;;;;5045559;28;20195;-49
2022/01/18 09:51:29;;;;;;;19.73;4.30;;;7.00;99.90;;;;;;5041957;28;20233;-47
2022/01/18 09:53:56;;;;;;;16.57;3.47;;;7.00;99.90;;;;;;5052077;28;20265;-45
2022/01/18 09:56:24;;;;;;;17.50;3.73;;;7.00;99.90;;;;;;5044983;28;20199;-46
2022/01/18 09:58:51;;;;;;;13.80;3.50;;;7.00;99.90;;;;;;5046700;28;20215;-50
2022/01/18 10:01:21;;;;;;;15.80;4.87;;;7.00;99.90;;;;;;5052222;28;20272;-49
2022/01/18 10:03:47;;;;;;;18.23;4.17;;;7.10;99.90;;;;;;5039330;28;20222;-50
2022/01/18 10:06:19;;;;;;;22.20;4.23;;;7.10;99.90;;;;;;5051963;28;20220;-44
2022/01/18 10:08:49;;;;;;;10.73;3.80;;;7.10;99.90;;;;;;5033871;28;20198;-49
2022/01/18 10:11:19;;;;;;;14.10;4.00;;;7.10;99.90;;;;;;5055755;28;20282;-50
2022/01/18 10:13:49;;;;;;;15.27;3.70;;;7.10;99.90;;;;;;5051948;28;20212;-47
2022/01/18 10:16:18;;;;;;;21.10;4.17;;;7.10;99.90;;;;;;5052571;28;20238;-45
2022/01/18 10:18:48;;;;;;;16.33;4.40;;;7.20;99.90;;;;;;5032769;28;20223;-47
2022/01/18 10:21:26;;;;;;;13.53;4.43;;;7.20;99.90;;;;;;5053767;28;20682;-45
2022/01/18 10:24:09;;;;;;;22.40;5.13;;;7.20;99.90;;;;;;5035449;28;20280;-47
2022/01/18 10:26:39;;;;;;;19.07;5.40;;;7.20;99.90;;;;;;5050427;28;20654;-47
2022/01/18 10:29:08;;;;;;;15.33;5.67;;;7.20;99.90;;;;;;5055668;28;20690;-46
2022/01/18 10:31:41;;;;;;;15.33;5.70;;;7.20;99.90;;;;;;5046246;28;20211;-46
2022/01/18 10:34:20;;;;;;;17.87;5.73;;;7.20;99.90;;;;;;5047363;28;20282;-46
2022/01/18 10:37:00;;;;;;;18.53;6.37;;;7.30;99.90;;;;;;5047176;28;20822;-48
2022/01/18 10:39:29;;;;;;;20.07;7.80;;;7.20;99.90;;;;;;5045016;28;20234;-47
2022/01/18 10:41:56;;;;;;;21.10;6.10;;;7.20;99.90;;;;;;5053288;28;20196;-46
2022/01/18 10:44:24;;;;;;;16.70;6.33;;;7.30;99.90;;;;;;5050931;28;20219;-46
2022/01/18 10:46:53;;;;;;;17.63;5.43;;;7.30;99.90;;;;;;5048372;28;20195;-46
2022/01/18 10:49:30;;;;;;;25.77;5.33;;;7.30;99.90;;;;;;5043440;28;20207;-45
2022/01/18 10:51:59;;;;;;;14.17;3.93;;;7.30;99.90;;;;;;5043708;28;20206;-45
2022/01/18 10:54:40;;;;;;;13.77;3.63;;;7.30;99.90;;;;;;5039277;28;20585;-50
2022/01/18 10:57:08;;;;;;;14.57;3.30;;;7.30;99.90;;;;;;5046605;28;20524;-51
2022/01/18 10:59:38;;;;;;;9.07;2.93;;;7.30;99.90;;;;;;5049341;28;20203;-48
2022/01/18 11:02:08;;;;;;;8.57;2.23;;;7.40;99.90;;;;;;5053431;28;20203;-48
2022/01/18 11:04:38;;;;;;;10.53;2.03;;;7.40;99.90;;;;;;5049039;28;20224;-46
2022/01/18 11:07:05;;;;;;;9.73;2.23;;;7.40;99.90;;;;;;5046244;28;20226;-46
2022/01/18 11:09:32;;;;;;;12.47;2.30;;;7.40;99.90;;;;;;5037830;28;20207;-52
2022/01/18 11:12:00;;;;;;;10.07;1.90;;;7.40;99.90;;;;;;5050073;28;20622;-48
2022/01/18 11:14:27;;;;;;;8.70;1.73;;;7.40;99.90;;;;;;5046820;28;20211;-49
2022/01/18 11:16:56;;;;;;;6.60;1.27;;;7.40;99.90;;;;;;5044205;28;20775;-48
2022/01/18 11:19:35;;;;;;;8.10;1.70;;;7.40;99.90;;;;;;5044939;28;20221;-50
2022/01/18 11:22:10;;;;;;;7.73;2.20;;;7.40;99.90;;;;;;5050235;28;20283;-50
2022/01/18 11:24:38;;;;;;;8.97;1.43;;;7.50;99.90;;;;;;5030121;28;20218;-49
2022/01/18 11:27:10;;;;;;;7.73;1.63;;;7.50;99.90;;;;;;5055838;28;20199;-48
2022/01/18 11:29:37;;;;;;;10.53;1.63;;;7.50;99.90;;;;;;5038341;28;20199;-47
2022/01/18 11:32:05;;;;;;;11.80;2.43;;;7.50;99.90;;;;;;5044507;28;20202;-45
2022/01/18 11:34:54;;;;;;;7.37;1.70;;;7.50;99.90;;;;;;5049863;28;20227;-49
2022/01/18 11:37:28;;;;;;;13.10;1.40;;;7.50;99.90;;;;;;5039152;28;20218;-51
2022/01/18 11:39:59;;;;;;;10.83;1.53;;;7.50;99.90;;;;;;5038431;28;22237;-46
2022/01/18 11:42:44;;;;;;;9.23;1.80;;;7.60;99.90;;;;;;5049847;28;20203;-49
2022/01/18 11:45:37;;;;;;;6.73;2.03;;;7.60;99.90;;;;;;5052313;28;20219;-49
2022/01/18 11:48:12;;;;;;;7.60;1.60;;;7.60;99.90;;;;;;5056920;28;20660;-46
2022/01/18 11:50:42;;;;;;;6.83;1.50;;;7.60;99.90;;;;;;5041967;28;20229;-54
2022/01/18 11:53:24;;;;;;;5.37;1.60;;;7.60;99.90;;;;;;5044046;28;20566;-48
2022/01/18 11:55:52;;;;;;;4.90;1.37;;;7.60;99.90;;;;;;5033758;28;20219;-48
2022/01/18 11:58:19;;;;;;;6.13;1.03;;;7.60;99.90;;;;;;5051709;28;20206;-49
2022/01/18 12:00:52;;;;;;;6.20;1.20;;;7.60;99.90;;;;;;5044314;28;20290;-46
2022/01/18 12:03:21;;;;;;;7.47;1.40;;;7.60;99.90;;;;;;5054522;28;20282;-49
2022/01/18 12:05:48;;;;;;;7.20;1.63;;;7.60;99.90;;;;;;5056994;28;20950;-51
2022/01/18 12:08:33;;;;;;;4.20;1.37;;;7.60;99.90;;;;;;5042859;28;20207;-47
2022/01/18 12:11:00;;;;;;;8.73;1.30;;;7.60;99.90;;;;;;5036009;28;20216;-49
2022/01/18 12:13:39;;;;;;;2.27;1.10;;;7.60;99.90;;;;;;5055052;28;20199;-49
2022/01/18 12:16:21;;;;;;;4.50;1.10;;;7.60;99.90;;;;;;5046399;28;20761;-48
2022/01/18 12:18:59;;;;;;;2.90;1.07;;;7.60;99.90;;;;;;5055729;28;20190;-49
2022/01/18 12:21:28;;;;;;;4.57;1.10;;;7.50;99.90;;;;;;5044708;28;20584;-50
2022/01/18 12:23:58;;;;;;;3.67;1.73;;;7.50;99.90;;;;;;5043765;28;20975;-45
2022/01/18 12:26:34;;;;;;;5.87;1.40;;;7.50;99.90;;;;;;5057328;28;20225;-50
2022/01/18 12:32:19;;;;;;;3.87;1.23;;;7.50;99.90;;;;;;5052487;28;20868;-48
2022/01/18 12:34:49;;;;;;;4.00;1.30;;;7.40;99.90;;;;;;5051764;28;20211;-46
2022/01/18 12:37:39;;;;;;;5.73;1.20;;;7.40;99.90;;;;;;5045990;28;20196;-45
2022/01/18 12:40:11;;;;;;;3.63;1.40;;;7.40;99.90;;;;;;5052015;28;20286;-46
2022/01/18 12:45:27;;;;;;;5.47;1.40;;;7.30;99.90;;;;;;5056826;28;20225;-45
2022/01/18 12:47:59;;;;;;;5.07;1.47;;;7.30;99.90;;;;;;5062395;28;20201;-50
2022/01/18 12:50:29;;;;;;;6.80;1.40;;;7.30;99.90;;;;;;5063999;28;20202;-46
2022/01/18 12:52:59;;;;;;;3.30;1.37;;;7.30;99.90;;;;;;5062948;28;20198;-46
2022/01/18 12:55:37;;;;;;;4.73;1.40;;;7.30;99.90;;;;;;5056303;28;20250;-48
2022/01/18 12:58:08;;;;;;;5.43;1.50;;;7.30;99.90;;;;;;5043094;28;20675;-49
2022/01/18 13:00:41;;;;;;;6.90;1.60;;;7.30;99.90;;;;;;5051645;28;20207;-46
2022/01/18 13:03:08;;;;;;;7.27;2.60;;;7.20;99.90;;;;;;5046015;28;20731;-49
2022/01/18 13:05:37;;;;;;;2.37;1.47;;;7.20;99.90;;;;;;5057956;28;20218;-46
2022/01/18 13:08:05;;;;;;;2.10;1.40;;;7.20;99.90;;;;;;5045042;28;20211;-49
2022/01/18 13:10:39;;;;;;;1.87;1.20;;;7.10;99.90;;;;;;5049609;28;20195;-50
2022/01/18 13:13:08;;;;;;;3.60;1.73;;;7.10;99.90;;;;;;5050485;28;20194;-50
2022/01/18 13:15:48;;;;;;;2.07;0.90;;;7.10;99.90;;;;;;5052982;28;20228;-46
2022/01/18 13:24:05;;;;;;;5.67;1.80;;;7.00;99.90;;;;;;5056133;28;20561;-49
2022/01/18 13:26:37;;;;;;;2.47;1.40;;;7.00;99.90;;;;;;5042600;28;20229;-51
2022/01/18 13:29:13;;;;;;;2.60;1.47;;;7.00;99.90;;;;;;5050441;28;20748;-53
2022/01/18 13:31:43;;;;;;;2.20;1.47;;;7.00;99.90;;;;;;5048840;28;20734;-48
2022/01/18 13:34:12;;;;;;;5.43;1.40;;;6.90;99.90;;;;;;5046384;28;20670;-50
2022/01/18 13:36:50;;;;;;;4.70;1.30;;;6.90;99.90;;;;;;5044846;28;20210;-45
2022/01/18 13:39:28;;;;;;;3.43;1.20;;;7.00;99.90;;;;;;5048304;28;20206;-47
2022/01/18 13:41:56;;;;;;;1.80;1.10;;;7.00;99.90;;;;;;5050511;28;20218;-46
2022/01/18 13:44:23;;;;;;;2.43;1.33;;;7.00;99.90;;;;;;5034235;28;21484;-46
2022/01/18 13:46:50;;;;;;;4.83;1.13;;;6.90;99.90;;;;;;5053053;28;20191;-48
2022/01/18 13:49:17;;;;;;;3.47;1.50;;;6.90;99.90;;;;;;5042620;28;23383;-46
2022/01/18 13:51:59;;;;;;;1.50;1.07;;;6.90;99.90;;;;;;5057656;28;20728;-46
2022/01/18 13:54:28;;;;;;;1.70;1.20;;;6.90;99.90;;;;;;5055006;28;20916;-45
2022/01/18 13:56:56;;;;;;;1.67;1.40;;;6.90;99.90;;;;;;5030233;28;20234;-48
2022/01/18 13:59:27;;;;;;;2.07;1.03;;;6.90;99.90;;;;;;5055181;28;20190;-44
2022/01/18 14:01:54;;;;;;;1.60;1.17;;;6.90;99.90;;;;;;5029384;28;20304;-43
2022/01/18 14:04:23;;;;;;;0.90;0.80;;;6.90;99.90;;;;;;5061205;28;20221;-48
2022/01/18 14:06:51;;;;;;;3.47;1.13;;;6.90;99.90;;;;;;5048472;28;20221;-46
2022/01/18 14:09:22;;;;;;;1.53;1.17;;;6.90;99.90;;;;;;5048689;28;20219;-45